LMMLLICB

Guest
Details From LMML - La Valette Luqa
To LICB - Magliocco
Flight Number -
Tags generated
Created
Modified
Stats Distance 73 nm / 135 km
Max Altitude 7,000 ft / 2,134 m
Waypoints 3
Social Downloads 1
Likes 0
Share VATSIM

Download

Looking for another format? Having issues loading an existing format? Contact us
Advertisement - Login to hide

Notes

Basic altitude profile: - Ascent Rate: 2500ft/min - Ascent Speed: 250kts - Cruise Altitude: 35000ft - Cruise Speed: 420kts - Descent Rate: 1500ft/min - Descent Speed: 250kts Options: - Use NATs: yes - Use PACOTS: yes - Use low airways: yes - Use high airways: yes

Route

LMML DIRKA LICB

ID Type Via Altitude Latitude Longitude Leg Dist Tot Dist Heading (true) Name
O LMML APT - 0 ft / 0 m 35.84948˚ 14.48184˚ - 0 nm - La Valette Luqa
DIRKA FIX - 7,000 ft / 2,134 m 36.50000˚ 14.31000˚ 39 nm 39 nm 348° / 348° -
O LICB APT - 0 ft / 0 m 36.99403˚ 14.60627˚ 32 nm 72 nm 26° / 26° Magliocco

Altitude Profile

Advertisement - Login to hide

LMML

Details ICAO LMML (MLA)
Name La Valette Luqa
Region Malta
Timezone Europe/Malta (UTC+1.0)
Stats Elevation 300 ft / 91 m (AMSL)
Location 35.849477° 14.481836°
Runways 2
Magnetic Variation 3.020° E

METAR

LMML 131445Z 27006KT 9999 FEW018 19/11 Q1021 NOSIG

Decode

TAF

Not found

Departure Runways

ID Width Length Bearing (true) Bearing (mag) Surface Threshold Offset Overrun Length
14 197 ft / 60 m 11,635 ft / 3,546 m 134.83° 131.81° Asphalt 0 ft / 0 m 420 ft / 128 m
24 148 ft / 45 m 7,789 ft / 2,374 m 234.37° 231.35° Asphalt 410 ft / 125 m 0 ft / 0 m
32 197 ft / 60 m 11,635 ft / 3,546 m 314.85° 311.83° Asphalt 817 ft / 249 m 0 ft / 0 m
6 148 ft / 45 m 7,789 ft / 2,374 m 54.35° 51.33° Asphalt 400 ft / 122 m 0 ft / 0 m

LICB

Details ICAO LICB
Name Magliocco
Region Italy
Timezone Europe/Rome (UTC+1.0)
Stats Elevation 757 ft / 231 m (AMSL)
Location 36.994031° 14.606274°
Runways 1
Magnetic Variation 3.114° E

METAR

LICB 131450Z 26006KT 230V290 9999 FEW030 16/12 Q1021

Decode

TAF

Not found

Destination Runways

ID Width Length Bearing (true) Bearing (mag) Surface Threshold Offset Overrun Length
05 147 ft / 45 m 8,334 ft / 2,540 m 49.99° 46.88° Asphalt 196 ft / 60 m 452 ft / 138 m
23 147 ft / 45 m 8,334 ft / 2,540 m 230.01° 226.90° Asphalt 0 ft / 0 m 0 ft / 0 m